createdAt,value
2022-11-21T00:08:31.447Z,90.10
2022-11-21T00:18:31.680Z,90.83
2022-11-21T00:28:31.784Z,93.60
2022-11-21T00:38:31.998Z,94.73
2022-11-21T00:48:32.262Z,95.50
2022-11-21T00:58:32.348Z,95.71
2022-11-21T01:08:32.576Z,92.11
2022-11-21T01:18:33.004Z,91.49
2022-11-21T01:28:32.963Z,86.34
2022-11-21T01:38:33.207Z,85.78
2022-11-21T01:48:33.377Z,85.02
2022-11-21T01:58:33.620Z,89.19
2022-11-21T02:08:33.840Z,93.45
2022-11-21T02:18:33.995Z,95.98
2022-11-21T02:28:34.083Z,97.26
2022-11-21T02:38:34.321Z,98.70
2022-11-21T02:48:34.536Z,99.99
2022-11-21T02:58:34.772Z,99.99
2022-11-21T03:08:34.858Z,99.99
2022-11-21T03:18:34.995Z,99.99
2022-11-21T03:28:35.190Z,99.99
2022-11-21T03:38:35.445Z,99.99
2022-11-21T03:48:35.635Z,99.99
2022-11-21T03:58:35.907Z,99.99
2022-11-21T04:08:35.992Z,98.19
2022-11-21T04:18:36.219Z,98.19
2022-11-21T04:28:36.724Z,96.91
2022-11-21T04:38:36.637Z,97.53
2022-11-21T04:48:36.833Z,96.70
2022-11-21T04:58:37.094Z,95.98
2022-11-21T05:08:37.176Z,95.10
2022-11-21T05:18:37.512Z,94.69
2022-11-21T05:28:37.600Z,94.53
2022-11-21T05:38:38.096Z,96.79
2022-11-21T05:48:37.953Z,95.19
2022-11-21T05:58:38.209Z,94.78
2022-11-21T06:08:38.401Z,92.87
2022-11-21T06:18:38.709Z,96.12
2022-11-21T06:28:38.761Z,97.36
2022-11-21T06:38:39.007Z,98.86
2022-11-21T06:48:39.212Z,99.99
2022-11-21T06:58:39.465Z,99.99
2022-11-21T07:08:39.952Z,99.99
2022-11-21T07:18:39.998Z,99.64
2022-11-21T07:28:40.093Z,98.55
2022-11-21T07:38:40.215Z,98.75
2022-11-21T07:48:40.428Z,97.67
2022-11-21T07:58:40.576Z,96.12
2022-11-21T08:08:41.014Z,95.52
2022-11-21T08:18:40.943Z,95.52
2022-11-21T08:28:41.048Z,92.99
2022-11-21T08:38:41.173Z,92.48
2022-11-21T08:48:41.536Z,91.82
2022-11-21T08:58:41.539Z,91.63
2022-11-21T09:08:41.763Z,89.89
2022-11-21T09:18:41.889Z,90.66
2022-11-21T09:28:42.113Z,88.35
2022-11-21T09:38:42.235Z,84.87
2022-11-21T09:48:42.558Z,84.77
2022-11-21T09:58:47.192Z,85.82
2022-11-21T10:08:42.821Z,83.51
2022-11-21T10:18:42.932Z,83.17
2022-11-21T10:28:43.364Z,82.32
2022-11-21T10:38:43.356Z,81.81
2022-11-21T10:48:43.461Z,75.90
2022-11-21T10:58:43.917Z,72.48
2022-11-21T11:08:43.744Z,68.05
2022-11-21T11:18:43.957Z,67.57
2022-11-21T11:28:44.139Z,70.40
2022-11-21T11:38:44.317Z,71.15
2022-11-21T11:49:16.713Z,72.24
2022-11-21T11:58:46.812Z,72.85
2022-11-21T12:08:45.037Z,73.30
2022-11-21T12:18:45.092Z,74.53
2022-11-21T12:28:45.264Z,69.57
2022-11-21T12:38:45.464Z,69.47
2022-11-21T12:48:47.081Z,68.00
2022-11-21T12:58:47.100Z,68.38
2022-11-21T13:08:46.279Z,61.63
2022-11-21T13:18:46.294Z,61.69
2022-11-21T13:28:46.347Z,64.12
2022-11-21T13:38:47.004Z,63.94
2022-11-21T13:48:47.114Z,63.20
2022-11-21T13:58:47.150Z,64.14
2022-11-21T14:08:48.059Z,66.97
2022-11-21T14:18:47.417Z,68.16
2022-11-21T14:28:47.484Z,76.42
2022-11-21T14:39:02.173Z,81.05
2022-11-21T14:48:48.777Z,86.55
2022-11-21T14:58:48.226Z,84.36
2022-11-21T15:09:46.043Z,86.61
2022-11-21T15:18:49.322Z,86.61
2022-11-21T15:28:48.496Z,86.86
2022-11-21T15:38:48.947Z,85.62
2022-11-21T15:48:48.875Z,84.69
2022-11-21T15:58:49.078Z,86.28
2022-11-21T16:08:49.097Z,86.67
2022-11-21T16:18:49.337Z,81.18
2022-11-21T16:28:49.527Z,79.08
2022-11-21T16:38:49.753Z,79.83
2022-11-21T16:48:49.931Z,80.66
2022-11-21T16:58:50.175Z,81.42
2022-11-21T17:08:50.337Z,83.94
2022-11-21T17:18:50.787Z,88.40
2022-11-21T17:28:50.737Z,89.79
2022-11-21T17:38:50.966Z,91.22
2022-11-21T17:48:54.958Z,93.65
2022-11-21T17:58:51.364Z,92.36
2022-11-21T18:08:51.549Z,86.40
2022-11-21T18:18:51.676Z,85.60
2022-11-21T18:29:07.120Z,81.28
2022-11-21T18:38:58.454Z,83.70
2022-11-21T18:49:08.840Z,82.55
2022-11-21T18:58:58.302Z,81.41
2022-11-21T19:08:53.504Z,84.83
2022-11-21T19:19:18.609Z,85.66
2022-11-21T19:28:53.763Z,79.52
2022-11-21T19:38:52.884Z,83.00
2022-11-21T19:48:53.153Z,86.90
2022-11-21T19:58:53.294Z,89.42
2022-11-21T20:08:53.487Z,90.29
2022-11-21T20:18:53.764Z,90.35
2022-11-21T20:28:53.843Z,88.49
2022-11-21T20:38:54.116Z,88.04
2022-11-21T20:48:54.296Z,88.90
2022-11-21T20:58:54.536Z,85.35
2022-11-21T21:08:54.706Z,86.07
2022-11-21T21:18:54.953Z,86.65
2022-11-21T21:28:55.261Z,87.46
2022-11-21T21:38:55.285Z,87.46
2022-11-21T21:48:55.485Z,86.07
2022-11-21T21:58:55.614Z,81.96
2022-11-21T22:08:55.783Z,80.38
2022-11-21T22:18:56.015Z,77.31
2022-11-21T22:28:56.181Z,77.28
2022-11-21T22:38:56.615Z,76.76
2022-11-21T22:48:56.567Z,77.66
2022-11-21T22:58:56.799Z,80.99
2022-11-21T23:08:56.976Z,83.98
2022-11-21T23:18:57.219Z,84.74
2022-11-21T23:28:57.367Z,89.11
2022-11-21T23:38:57.659Z,92.25
2022-11-21T23:48:57.732Z,95.28
2022-11-21T23:58:57.957Z,94.82
